Time;durP1;ratioP1;P1;durP2;ratioP2;P2;SDS_P1;SDS_P2;PMS_P1;PMS_P2;Temp;Humidity;BMP_temperature;BMP_pressure;BME280_temperature;BME280_humidity;BME280_pressure;Samples;Min_cycle;Max_cycle;Signal;HPM_P1;HPM_P2
2023/12/19 00:00:05;;;;;;;41.50;39.30;;;;;;;;;;5034994;28;20131;-60
2023/12/19 00:02:30;;;;;;;40.65;38.45;;;;;;;;;;5030135;28;20048;-60
2023/12/19 00:04:56;;;;;;;41.42;39.22;;;;;;;;;;5027378;28;20029;-60
2023/12/19 00:07:21;;;;;;;44.10;41.80;;;;;;;;;;5028271;28;20037;-60
2023/12/19 00:09:46;;;;;;;43.47;41.20;;;;;;;;;;5026219;28;20064;-60
2023/12/19 00:12:11;;;;;;;41.70;39.20;;;;;;;;;;5034811;28;20666;-60
2023/12/19 00:14:37;;;;;;;45.22;42.83;;;;;;;;;;5029547;28;20044;-60
2023/12/19 00:17:02;;;;;;;44.47;41.97;;;;;;;;;;5034956;28;20029;-60
2023/12/19 00:19:27;;;;;;;42.58;40.20;;;;;;;;;;5031481;28;20052;-60
2023/12/19 00:21:53;;;;;;;42.45;40.25;;;;;;;;;;5029692;28;20034;-60
2023/12/19 00:24:18;;;;;;;43.42;41.03;;;;;;;;;;5028585;28;20036;-59
2023/12/19 00:26:44;;;;;;;42.58;40.28;;;;;;;;;;5014284;28;20123;-59
2023/12/19 00:29:09;;;;;;;42.67;40.47;;;;;;;;;;5028880;28;20355;-60
2023/12/19 00:31:35;;;;;;;42.22;40.00;;;;;;;;;;5029841;28;20041;-60
2023/12/19 00:34:00;;;;;;;43.88;41.42;;;;;;;;;;5023501;28;20103;-60
2023/12/19 00:36:25;;;;;;;42.75;40.25;;;;;;;;;;5026798;28;20021;-60
2023/12/19 00:38:51;;;;;;;42.10;39.90;;;;;;;;;;5032112;28;20036;-59
2023/12/19 00:41:17;;;;;;;41.83;39.63;;;;;;;;;;5028452;28;20420;-58
2023/12/19 00:43:44;;;;;;;41.88;39.40;;;;;;;;;;5032690;28;20112;-59
2023/12/19 00:46:09;;;;;;;44.38;41.90;;;;;;;;;;5029567;28;20381;-60
2023/12/19 00:48:35;;;;;;;41.28;39.05;;;;;;;;;;5033622;28;20044;-60
2023/12/19 00:51:01;;;;;;;39.60;37.47;;;;;;;;;;5031322;28;20041;-60
2023/12/19 00:53:26;;;;;;;41.42;39.05;;;;;;;;;;5029807;28;20044;-60
2023/12/19 00:55:51;;;;;;;40.50;38.35;;;;;;;;;;5030772;28;20029;-60
2023/12/19 00:58:17;;;;;;;40.70;38.45;;;;;;;;;;5030830;28;20087;-60
2023/12/19 01:00:42;;;;;;;39.15;37.15;;;;;;;;;;5030190;28;20094;-60
2023/12/19 01:03:08;;;;;;;38.47;36.45;;;;;;;;;;5031334;28;20181;-60
2023/12/19 01:05:33;;;;;;;41.10;38.97;;;;;;;;;;5029485;28;20036;-60
2023/12/19 01:07:58;;;;;;;39.33;37.08;;;;;;;;;;5030949;28;20041;-60
2023/12/19 01:10:24;;;;;;;40.10;37.60;;;;;;;;;;5028383;28;20036;-60
2023/12/19 01:12:49;;;;;;;43.08;40.67;;;;;;;;;;5029228;28;20474;-60
2023/12/19 01:15:14;;;;;;;41.28;38.92;;;;;;;;;;5033132;28;20038;-60
2023/12/19 01:17:40;;;;;;;42.45;40.08;;;;;;;;;;5029834;28;20108;-60
2023/12/19 01:20:05;;;;;;;44.42;42.00;;;;;;;;;;5033764;28;20090;-60
2023/12/19 01:22:31;;;;;;;40.50;38.40;;;;;;;;;;5030650;28;20064;-61
2023/12/19 01:24:56;;;;;;;43.08;40.80;;;;;;;;;;5031188;28;20041;-61
2023/12/19 01:27:21;;;;;;;44.92;42.40;;;;;;;;;;5030693;28;20034;-62
2023/12/19 01:29:47;;;;;;;42.30;40.10;;;;;;;;;;5027094;28;20040;-61
2023/12/19 01:32:13;;;;;;;40.40;38.30;;;;;;;;;;5029492;28;20021;-61
2023/12/19 01:34:38;;;;;;;40.83;38.58;;;;;;;;;;5030870;28;20033;-61
2023/12/19 01:37:04;;;;;;;42.75;40.47;;;;;;;;;;5030763;28;20039;-61
2023/12/19 01:39:29;;;;;;;41.38;39.17;;;;;;;;;;5028594;28;20041;-61
2023/12/19 01:41:55;;;;;;;42.13;39.88;;;;;;;;;;5033481;28;20072;-61
2023/12/19 01:44:20;;;;;;;41.55;39.17;;;;;;;;;;5027173;28;20119;-61
2023/12/19 01:46:46;;;;;;;42.65;40.35;;;;;;;;;;5028453;28;20456;-61
2023/12/19 01:49:11;;;;;;;42.55;40.25;;;;;;;;;;5032024;28;20025;-61
2023/12/19 01:51:37;;;;;;;42.90;40.65;;;;;;;;;;5029040;28;20037;-61
2023/12/19 01:54:07;;;;;;;42.33;39.85;;;;;;;;;;5029636;28;20037;-61
2023/12/19 01:56:33;;;;;;;41.03;38.73;;;;;;;;;;5024967;28;20060;-62
2023/12/19 01:59:00;;;;;;;43.55;41.13;;;;;;;;;;5030698;28;20729;-61
2023/12/19 02:01:26;;;;;;;40.33;38.22;;;;;;;;;;5028155;28;20044;-61
2023/12/19 02:03:52;;;;;;;43.65;41.15;;;;;;;;;;5029985;28;20025;-61
2023/12/19 02:06:19;;;;;;;41.50;39.30;;;;;;;;;;5026631;28;20041;-60
2023/12/19 02:08:44;;;;;;;40.20;38.00;;;;;;;;;;5032240;28;20538;-60
2023/12/19 02:11:10;;;;;;;39.85;37.75;;;;;;;;;;5030138;28;20078;-60
2023/12/19 02:13:37;;;;;;;39.78;37.53;;;;;;;;;;5030098;28;20037;-60
2023/12/19 02:16:03;;;;;;;38.67;36.53;;;;;;;;;;5031464;28;20033;-60
2023/12/19 02:18:28;;;;;;;35.22;33.30;;;;;;;;;;5027299;28;20048;-61
2023/12/19 02:20:54;;;;;;;35.63;33.60;;;;;;;;;;5030675;28;20029;-61
2023/12/19 02:23:20;;;;;;;35.35;33.25;;;;;;;;;;5026825;28;20025;-60
2023/12/19 02:25:46;;;;;;;38.42;36.00;;;;;;;;;;5010251;28;20444;-61
2023/12/19 02:28:12;;;;;;;37.50;35.38;;;;;;;;;;5026770;28;20041;-60
2023/12/19 02:30:38;;;;;;;36.72;34.70;;;;;;;;;;5029403;28;20057;-59
2023/12/19 02:33:04;;;;;;;36.80;34.67;;;;;;;;;;5031278;28;20140;-59
2023/12/19 02:35:30;;;;;;;36.78;34.75;;;;;;;;;;5030946;28;20675;-59
2023/12/19 02:37:56;;;;;;;37.45;35.40;;;;;;;;;;5031399;28;20030;-60
2023/12/19 02:40:25;;;;;;;36.80;34.75;;;;;;;;;;5026476;28;20102;-62
2023/12/19 02:42:50;;;;;;;36.70;34.42;;;;;;;;;;5028669;28;20170;-61
2023/12/19 02:45:16;;;;;;;36.95;34.90;;;;;;;;;;5029697;28;20113;-61
2023/12/19 02:47:42;;;;;;;36.85;34.85;;;;;;;;;;5029725;28;20056;-60
2023/12/19 02:50:08;;;;;;;38.30;36.30;;;;;;;;;;5029338;28;20067;-59
2023/12/19 02:52:34;;;;;;;35.10;33.15;;;;;;;;;;5027326;28;20044;-60
2023/12/19 02:54:59;;;;;;;37.78;35.60;;;;;;;;;;5027383;28;20033;-61
2023/12/19 02:57:25;;;;;;;35.88;33.97;;;;;;;;;;5028270;28;20122;-61
2023/12/19 02:59:50;;;;;;;37.58;35.45;;;;;;;;;;5033614;28;20030;-64
2023/12/19 03:02:15;;;;;;;37.70;35.70;;;;;;;;;;5032854;28;20034;-61
2023/12/19 03:04:41;;;;;;;37.58;35.55;;;;;;;;;;5038331;28;20037;-61
2023/12/19 03:07:09;;;;;;;36.83;34.85;;;;;;;;;;5028978;28;20028;-61
2023/12/19 03:09:34;;;;;;;37.30;35.30;;;;;;;;;;5032302;28;20049;-61
2023/12/19 03:12:03;;;;;;;37.35;35.35;;;;;;;;;;5033482;28;20025;-61
2023/12/19 03:14:33;;;;;;;36.35;34.40;;;;;;;;;;5034348;28;20033;-61
2023/12/19 03:17:01;;;;;;;39.07;36.73;;;;;;;;;;5048111;28;20033;-61
2023/12/19 03:19:26;;;;;;;38.03;36.03;;;;;;;;;;5031230;28;20490;-61
2023/12/19 03:21:51;;;;;;;39.92;37.38;;;;;;;;;;5033048;28;20041;-61
2023/12/19 03:24:17;;;;;;;38.95;36.75;;;;;;;;;;5030315;28;20037;-61
2023/12/19 03:26:42;;;;;;;40.08;37.83;;;;;;;;;;5033668;28;20140;-60
2023/12/19 03:29:08;;;;;;;37.88;35.88;;;;;;;;;;5032914;28;20037;-61
2023/12/19 03:31:33;;;;;;;41.33;38.83;;;;;;;;;;5033686;28;20068;-60
2023/12/19 03:34:01;;;;;;;39.67;37.50;;;;;;;;;;5034271;28;20119;-61
2023/12/19 03:36:26;;;;;;;42.00;39.67;;;;;;;;;;5033451;28;20028;-61
2023/12/19 03:38:52;;;;;;;41.60;39.35;;;;;;;;;;5035563;28;20047;-60
2023/12/19 03:41:17;;;;;;;40.35;38.10;;;;;;;;;;5035067;28;20048;-60
2023/12/19 03:43:42;;;;;;;40.83;38.58;;;;;;;;;;5032808;28;20041;-59
2023/12/19 03:46:07;;;;;;;39.45;37.35;;;;;;;;;;5034070;28;20029;-59
2023/12/19 03:48:36;;;;;;;41.58;39.28;;;;;;;;;;5029151;28;20453;-60
2023/12/19 03:51:01;;;;;;;38.42;36.33;;;;;;;;;;5033932;28;20484;-59
2023/12/19 03:53:27;;;;;;;40.50;38.17;;;;;;;;;;5034853;28;20124;-59
2023/12/19 03:55:54;;;;;;;37.65;35.55;;;;;;;;;;5028183;28;20045;-59
2023/12/19 03:58:19;;;;;;;39.63;37.38;;;;;;;;;;5037156;28;20152;-59
2023/12/19 04:00:44;;;;;;;40.05;37.95;;;;;;;;;;5032028;28;20419;-59
2023/12/19 04:03:10;;;;;;;38.33;36.13;;;;;;;;;;5033322;28;20045;-59
2023/12/19 04:05:35;;;;;;;40.03;37.53;;;;;;;;;;5028413;28;20117;-59
2023/12/19 04:08:00;;;;;;;40.15;37.90;;;;;;;;;;5035167;28;20450;-59
2023/12/19 04:10:26;;;;;;;40.92;38.72;;;;;;;;;;5032626;28;20123;-59
2023/12/19 04:12:51;;;;;;;38.88;36.67;;;;;;;;;;5026400;28;20037;-59
2023/12/19 04:15:17;;;;;;;40.65;38.40;;;;;;;;;;5030980;28;20037;-59
2023/12/19 04:17:42;;;;;;;39.83;37.72;;;;;;;;;;5029687;28;20048;-59
2023/12/19 04:20:08;;;;;;;38.40;36.28;;;;;;;;;;5031061;28;20037;-59
2023/12/19 04:22:33;;;;;;;40.47;38.35;;;;;;;;;;5030364;28;20029;-60
2023/12/19 04:24:59;;;;;;;40.38;38.17;;;;;;;;;;5033472;28;20441;-60
2023/12/19 04:27:24;;;;;;;41.45;39.03;;;;;;;;;;5031154;28;20474;-59
2023/12/19 04:29:54;;;;;;;42.03;39.72;;;;;;;;;;5030960;28;20259;-60
2023/12/19 04:32:20;;;;;;;40.65;38.38;;;;;;;;;;5014377;28;20044;-60
2023/12/19 04:34:45;;;;;;;40.50;38.30;;;;;;;;;;5034355;28;20041;-59
2023/12/19 04:37:11;;;;;;;41.72;39.40;;;;;;;;;;5033704;28;20510;-59
2023/12/19 04:39:36;;;;;;;40.45;38.33;;;;;;;;;;5027393;28;20057;-60
2023/12/19 04:42:06;;;;;;;42.88;40.42;;;;;;;;;;5029246;28;20057;-59
2023/12/19 04:44:32;;;;;;;46.13;43.70;;;;;;;;;;5027527;28;20037;-60
2023/12/19 04:46:58;;;;;;;45.15;42.65;;;;;;;;;;5023965;28;20044;-60
2023/12/19 04:49:23;;;;;;;43.28;40.50;;;;;;;;;;5030597;28;20034;-59
2023/12/19 04:51:48;;;;;;;45.95;43.53;;;;;;;;;;5026412;28;20033;-59
2023/12/19 04:54:14;;;;;;;45.95;43.45;;;;;;;;;;5030756;28;20375;-60
2023/12/19 04:56:39;;;;;;;43.13;40.88;;;;;;;;;;5032964;28;20115;-61
2023/12/19 04:59:04;;;;;;;45.95;43.38;;;;;;;;;;5025885;28;20036;-60
2023/12/19 05:01:30;;;;;;;45.72;43.22;;;;;;;;;;5026001;28;20033;-60
2023/12/19 05:03:55;;;;;;;44.80;42.42;;;;;;;;;;5028340;28;20055;-60
2023/12/19 05:06:20;;;;;;;45.28;42.67;;;;;;;;;;5028798;28;20489;-60
2023/12/19 05:08:46;;;;;;;44.80;42.30;;;;;;;;;;5032562;28;20041;-60
2023/12/19 05:11:11;;;;;;;45.45;43.00;;;;;;;;;;5028124;28;20033;-60
2023/12/19 05:13:37;;;;;;;47.15;43.92;;;;;;;;;;5025518;28;20478;-58
2023/12/19 05:16:13;;;;;;;44.03;41.72;;;;;;;;;;5028102;28;20024;-58
2023/12/19 05:18:41;;;;;;;44.22;41.20;;;;;;;;;;5028322;28;20152;-59
2023/12/19 05:21:07;;;;;;;42.50;40.20;;;;;;;;;;5026279;28;20108;-59
2023/12/19 05:23:34;;;;;;;42.25;40.03;;;;;;;;;;5023676;28;20024;-59
2023/12/19 05:25:59;;;;;;;44.25;41.85;;;;;;;;;;5028206;28;20042;-59
2023/12/19 05:28:25;;;;;;;42.20;39.80;;;;;;;;;;5027724;28;20041;-58
2023/12/19 05:30:50;;;;;;;41.50;39.17;;;;;;;;;;5026531;28;20033;-58
2023/12/19 05:33:15;;;;;;;42.10;39.90;;;;;;;;;;5029440;28;20048;-59
2023/12/19 05:35:41;;;;;;;43.33;40.97;;;;;;;;;;5032679;28;20029;-58
2023/12/19 05:38:06;;;;;;;41.72;39.53;;;;;;;;;;5023264;28;20048;-60
2023/12/19 05:40:32;;;;;;;41.65;39.38;;;;;;;;;;5026343;28;20090;-59
2023/12/19 05:42:58;;;;;;;40.25;38.08;;;;;;;;;;5025681;28;20048;-60
2023/12/19 05:45:24;;;;;;;41.33;39.20;;;;;;;;;;5029354;28;20053;-59
2023/12/19 05:47:49;;;;;;;41.50;39.25;;;;;;;;;;5030194;28;20045;-60
2023/12/19 05:50:15;;;;;;;41.45;39.15;;;;;;;;;;5032623;28;20021;-60
2023/12/19 05:52:40;;;;;;;41.65;39.42;;;;;;;;;;5024442;28;20025;-60
2023/12/19 05:55:06;;;;;;;40.17;37.85;;;;;;;;;;5026323;28;20021;-60
2023/12/19 05:57:32;;;;;;;41.40;39.05;;;;;;;;;;5030752;28;20052;-60
2023/12/19 05:59:57;;;;;;;38.72;36.67;;;;;;;;;;5026364;28;20458;-59
2023/12/19 06:02:23;;;;;;;38.85;36.75;;;;;;;;;;5031116;28;20033;-59
2023/12/19 06:04:50;;;;;;;40.58;38.38;;;;;;;;;;5027353;28;20097;-60
2023/12/19 06:07:16;;;;;;;37.92;35.90;;;;;;;;;;5029334;28;20355;-60
2023/12/19 06:09:42;;;;;;;39.50;37.25;;;;;;;;;;5030345;28;20035;-60
2023/12/19 06:12:07;;;;;;;37.50;35.28;;;;;;;;;;5030784;28;20447;-59
2023/12/19 06:14:33;;;;;;;41.28;38.63;;;;;;;;;;5028521;28;20041;-59
2023/12/19 06:16:58;;;;;;;37.28;35.28;;;;;;;;;;5030645;28;20442;-59
2023/12/19 06:19:23;;;;;;;38.63;36.53;;;;;;;;;;5029152;28;20390;-58
2023/12/19 06:21:49;;;;;;;37.97;35.92;;;;;;;;;;5030995;28;20630;-58
2023/12/19 06:24:14;;;;;;;39.85;37.65;;;;;;;;;;5033252;28;20099;-58
2023/12/19 06:26:40;;;;;;;36.08;34.10;;;;;;;;;;5029401;28;20520;-58
2023/12/19 06:29:06;;;;;;;39.25;37.08;;;;;;;;;;5027782;28;20760;-58
2023/12/19 06:31:31;;;;;;;37.95;35.65;;;;;;;;;;5029391;28;20068;-58
2023/12/19 06:33:57;;;;;;;38.28;36.25;;;;;;;;;;5032329;28;20086;-59
2023/12/19 06:36:31;;;;;;;36.83;34.83;;;;;;;;;;5033603;28;20037;-58
2023/12/19 06:38:56;;;;;;;36.60;34.60;;;;;;;;;;5031714;28;20055;-58
2023/12/19 06:41:22;;;;;;;37.20;35.15;;;;;;;;;;5031120;28;20033;-58
2023/12/19 06:43:47;;;;;;;37.60;35.30;;;;;;;;;;5032883;28;20034;-58
2023/12/19 06:46:16;;;;;;;37.45;35.38;;;;;;;;;;5032848;28;20037;-58
2023/12/19 06:48:42;;;;;;;36.03;34.03;;;;;;;;;;5033652;28;20029;-58
2023/12/19 06:51:08;;;;;;;34.63;32.72;;;;;;;;;;5033107;28;20037;-58
2023/12/19 06:53:33;;;;;;;36.88;34.78;;;;;;;;;;5032092;28;20033;-64
2023/12/19 06:55:59;;;;;;;36.88;34.83;;;;;;;;;;5034504;28;20181;-58
2023/12/19 06:58:24;;;;;;;35.47;33.58;;;;;;;;;;5032922;28;20025;-59
2023/12/19 07:00:49;;;;;;;35.10;33.20;;;;;;;;;;5031607;28;20473;-58
2023/12/19 07:03:15;;;;;;;36.03;34.13;;;;;;;;;;5029230;28;20037;-58
2023/12/19 07:05:41;;;;;;;36.97;34.83;;;;;;;;;;5031439;28;20041;-58
2023/12/19 07:08:06;;;;;;;37.17;35.10;;;;;;;;;;5033201;28;20107;-58
2023/12/19 07:10:32;;;;;;;35.88;33.78;;;;;;;;;;5036645;28;20037;-62
2023/12/19 07:12:58;;;;;;;34.55;32.65;;;;;;;;;;5030636;28;20064;-60
2023/12/19 07:15:23;;;;;;;35.70;33.80;;;;;;;;;;5033916;28;20049;-60
2023/12/19 07:17:49;;;;;;;36.65;34.65;;;;;;;;;;5031355;28;20418;-59
2023/12/19 07:20:14;;;;;;;36.85;34.80;;;;;;;;;;5027903;28;20033;-59
2023/12/19 07:22:41;;;;;;;35.63;33.65;;;;;;;;;;5032265;28;20447;-59
2023/12/19 07:25:07;;;;;;;36.20;34.25;;;;;;;;;;5027328;28;20593;-59
2023/12/19 07:27:34;;;;;;;37.08;35.15;;;;;;;;;;5035256;28;20033;-59
2023/12/19 07:29:59;;;;;;;38.03;35.58;;;;;;;;;;5029650;28;20057;-59
2023/12/19 07:32:25;;;;;;;37.22;35.13;;;;;;;;;;5032864;28;20033;-59
2023/12/19 07:34:50;;;;;;;38.90;36.78;;;;;;;;;;5030441;28;20554;-59
2023/12/19 07:37:16;;;;;;;37.58;35.50;;;;;;;;;;5035113;28;20041;-60
2023/12/19 07:39:41;;;;;;;38.40;36.33;;;;;;;;;;5029150;28;20025;-59
2023/12/19 07:42:07;;;;;;;37.40;35.33;;;;;;;;;;5036276;28;20064;-58
2023/12/19 07:44:33;;;;;;;37.63;35.63;;;;;;;;;;5032255;28;20052;-59
2023/12/19 07:46:59;;;;;;;38.33;36.22;;;;;;;;;;5029503;28;20118;-59
2023/12/19 07:49:24;;;;;;;39.28;37.17;;;;;;;;;;5032020;28;20034;-59
2023/12/19 07:51:50;;;;;;;38.00;35.88;;;;;;;;;;5026800;28;20370;-58
2023/12/19 07:54:15;;;;;;;37.08;35.08;;;;;;;;;;5033614;28;20040;-58
2023/12/19 07:56:42;;;;;;;37.03;34.85;;;;;;;;;;5030138;28;20687;-59
2023/12/19 07:59:07;;;;;;;36.70;34.70;;;;;;;;;;5029472;28;20056;-58
2023/12/19 08:01:32;;;;;;;36.15;34.15;;;;;;;;;;5030477;28;20606;-58
2023/12/19 08:03:59;;;;;;;38.65;36.55;;;;;;;;;;5030590;28;20029;-58
2023/12/19 08:06:24;;;;;;;37.95;35.85;;;;;;;;;;5031888;28;20538;-58
2023/12/19 08:08:51;;;;;;;36.58;34.50;;;;;;;;;;5031162;28;20151;-58
2023/12/19 08:11:17;;;;;;;36.63;34.63;;;;;;;;;;5032922;28;20033;-58
2023/12/19 08:13:43;;;;;;;37.22;34.67;;;;;;;;;;5032971;28;20144;-58
2023/12/19 08:16:10;;;;;;;35.10;33.10;;;;;;;;;;5008601;28;20117;-58
2023/12/19 08:18:36;;;;;;;36.00;33.90;;;;;;;;;;5028324;28;20155;-58
2023/12/19 08:21:05;;;;;;;34.85;32.95;;;;;;;;;;5026219;28;20033;-58
2023/12/19 08:23:30;;;;;;;36.00;33.80;;;;;;;;;;5032078;28;20042;-58
2023/12/19 08:25:55;;;;;;;35.80;33.70;;;;;;;;;;5023870;28;20040;-58
2023/12/19 08:28:21;;;;;;;36.95;34.92;;;;;;;;;;5027873;28;20095;-58
2023/12/19 08:30:47;;;;;;;33.05;31.08;;;;;;;;;;5026370;28;20032;-58
2023/12/19 08:33:13;;;;;;;33.85;32.03;;;;;;;;;;5029885;28;20044;-58
2023/12/19 08:35:39;;;;;;;35.42;33.42;;;;;;;;;;5029232;28;20549;-58
2023/12/19 08:38:05;;;;;;;34.22;32.33;;;;;;;;;;5029516;28;20409;-58
2023/12/19 08:40:30;;;;;;;33.97;32.17;;;;;;;;;;5031081;28;20060;-58
2023/12/19 08:42:56;;;;;;;36.55;34.38;;;;;;;;;;5028967;28;20076;-59
2023/12/19 08:45:26;;;;;;;32.45;30.75;;;;;;;;;;5029919;28;20045;-58
2023/12/19 08:47:53;;;;;;;34.92;32.90;;;;;;;;;;5032083;28;20033;-58
2023/12/19 08:50:19;;;;;;;34.05;32.25;;;;;;;;;;5027439;28;20080;-58
2023/12/19 08:52:44;;;;;;;35.70;33.60;;;;;;;;;;5029755;28;20032;-59
2023/12/19 08:55:11;;;;;;;34.35;32.35;;;;;;;;;;5027963;28;20030;-58
2023/12/19 08:57:44;;;;;;;36.17;34.20;;;;;;;;;;5033019;28;20124;-60
2023/12/19 09:00:19;;;;;;;34.38;32.45;;;;;;;;;;5031140;28;20201;-59
2023/12/19 09:02:46;;;;;;;32.70;30.73;;;;;;;;;;5032594;28;20391;-59
2023/12/19 09:05:12;;;;;;;32.22;30.30;;;;;;;;;;5031305;28;20033;-58
2023/12/19 09:07:39;;;;;;;33.75;31.80;;;;;;;;;;5036336;28;20366;-58
2023/12/19 09:10:05;;;;;;;32.25;30.45;;;;;;;;;;5029564;28;20548;-58
2023/12/19 09:12:32;;;;;;;32.63;30.08;;;;;;;;;;5028337;28;20029;-58
2023/12/19 09:14:57;;;;;;;31.65;29.85;;;;;;;;;;5030796;28;20072;-58
2023/12/19 09:17:22;;;;;;;31.30;29.42;;;;;;;;;;5029298;28;20041;-60
2023/12/19 09:19:48;;;;;;;29.67;27.98;;;;;;;;;;5031329;28;20623;-58
2023/12/19 09:22:13;;;;;;;29.67;27.95;;;;;;;;;;5027740;28;20065;-59
2023/12/19 09:24:38;;;;;;;27.20;25.65;;;;;;;;;;5028340;28;20333;-59
2023/12/19 09:27:04;;;;;;;28.83;27.23;;;;;;;;;;5026733;28;20029;-58
2023/12/19 09:29:29;;;;;;;29.48;27.77;;;;;;;;;;5030797;28;20033;-58
2023/12/19 09:31:56;;;;;;;25.48;24.08;;;;;;;;;;5032206;28;20024;-58
2023/12/19 09:34:21;;;;;;;28.67;27.08;;;;;;;;;;5027490;28;20051;-59
2023/12/19 09:36:47;;;;;;;28.65;26.90;;;;;;;;;;5030420;28;20041;-60
2023/12/19 09:39:14;;;;;;;28.90;27.25;;;;;;;;;;5028248;28;20040;-58
2023/12/19 09:41:41;;;;;;;28.55;26.95;;;;;;;;;;5029206;28;20038;-59
2023/12/19 09:44:08;;;;;;;32.00;29.80;;;;;;;;;;5034472;28;20045;-59
2023/12/19 09:46:34;;;;;;;27.17;25.67;;;;;;;;;;5032050;28;20041;-59
2023/12/19 09:49:02;;;;;;;30.92;28.98;;;;;;;;;;5027026;28;20068;-58
2023/12/19 09:51:34;;;;;;;28.88;27.10;;;;;;;;;;5029511;28;20059;-59
2023/12/19 09:54:02;;;;;;;26.95;25.50;;;;;;;;;;5027481;28;20045;-59
2023/12/19 09:56:28;;;;;;;28.05;26.05;;;;;;;;;;5030073;28;20411;-58
2023/12/19 09:59:01;;;;;;;27.23;25.73;;;;;;;;;;5033124;28;20224;-58
2023/12/19 10:01:26;;;;;;;27.38;25.88;;;;;;;;;;5027532;28;20127;-59
2023/12/19 10:03:55;;;;;;;26.60;25.13;;;;;;;;;;5032066;28;20104;-59
2023/12/19 10:06:22;;;;;;;27.35;25.65;;;;;;;;;;5029938;28;20399;-59
2023/12/19 10:08:48;;;;;;;28.05;26.30;;;;;;;;;;5029028;28;20040;-59
2023/12/19 10:11:17;;;;;;;26.77;25.27;;;;;;;;;;5026990;28;20033;-58
2023/12/19 10:13:43;;;;;;;27.10;25.55;;;;;;;;;;5030203;28;20082;-60
2023/12/19 10:16:11;;;;;;;27.92;26.30;;;;;;;;;;5029864;28;20028;-59
2023/12/19 10:18:38;;;;;;;30.38;27.48;;;;;;;;;;5025117;28;20510;-59
2023/12/19 10:21:10;;;;;;;26.02;24.63;;;;;;;;;;5028207;28;20385;-59
2023/12/19 10:23:43;;;;;;;26.52;24.92;;;;;;;;;;5028934;28;20037;-59
2023/12/19 10:26:10;;;;;;;27.48;25.60;;;;;;;;;;5025032;28;20425;-61
2023/12/19 10:28:37;;;;;;;26.52;25.02;;;;;;;;;;5023641;28;20045;-59
2023/12/19 10:34:25;;;;;;;26.95;25.38;;;;;;;;;;5019030;28;20079;-59
2023/12/19 10:36:50;;;;;;;26.20;24.80;;;;;;;;;;5033965;28;20096;-59
2023/12/19 10:39:18;;;;;;;27.00;25.52;;;;;;;;;;5029495;28;20691;-59
2023/12/19 10:41:44;;;;;;;28.95;26.85;;;;;;;;;;5028011;28;20068;-59
2023/12/19 10:44:11;;;;;;;27.85;26.35;;;;;;;;;;5026689;28;20068;-59
2023/12/19 10:46:38;;;;;;;29.00;27.35;;;;;;;;;;5027534;28;20452;-58
2023/12/19 10:49:04;;;;;;;27.65;25.95;;;;;;;;;;5029206;28;20026;-59
2023/12/19 10:51:41;;;;;;;31.08;29.33;;;;;;;;;;5027856;28;20045;-59
2023/12/19 10:54:06;;;;;;;30.63;29.00;;;;;;;;;;5027433;28;20033;-59
2023/12/19 10:57:05;;;;;;;32.13;30.45;;;;;;;;;;5031188;28;21280;-59
2023/12/19 10:59:36;;;;;;;37.10;34.97;;;;;;;;;;5029253;28;20036;-59
2023/12/19 11:02:30;;;;;;;34.45;32.60;;;;;;;;;;5025260;28;20061;-59
2023/12/19 11:05:21;;;;;;;35.08;33.22;;;;;;;;;;5026984;28;20475;-59
2023/12/19 11:07:50;;;;;;;32.08;30.38;;;;;;;;;;5029882;28;20045;-59
2023/12/19 11:10:20;;;;;;;34.75;32.88;;;;;;;;;;5029291;28;20095;-59
2023/12/19 11:12:46;;;;;;;34.58;32.70;;;;;;;;;;5025206;28;20030;-60
2023/12/19 11:15:12;;;;;;;33.33;31.45;;;;;;;;;;5024480;28;20448;-59
2023/12/19 11:17:46;;;;;;;33.58;31.75;;;;;;;;;;5027069;28;20052;-60
2023/12/19 11:20:22;;;;;;;32.38;30.63;;;;;;;;;;5026397;28;20048;-59
2023/12/19 11:23:05;;;;;;;32.08;30.33;;;;;;;;;;5033904;28;20790;-59
2023/12/19 11:25:46;;;;;;;31.20;29.50;;;;;;;;;;5033594;28;20465;-60
2023/12/19 11:28:11;;;;;;;34.28;32.47;;;;;;;;;;5030197;28;20561;-60
2023/12/19 11:30:40;;;;;;;32.22;30.45;;;;;;;;;;5034168;28;20041;-59
2023/12/19 11:33:07;;;;;;;33.63;31.83;;;;;;;;;;5031628;28;20051;-58
2023/12/19 11:35:33;;;;;;;34.80;32.92;;;;;;;;;;5030540;28;20123;-58
2023/12/19 11:38:24;;;;;;;32.25;30.50;;;;;;;;;;5032080;28;20025;-60
2023/12/19 11:40:58;;;;;;;32.40;30.70;;;;;;;;;;5030725;28;20025;-60
2023/12/19 11:43:29;;;;;;;34.63;32.83;;;;;;;;;;5039803;28;20064;-60
2023/12/19 11:45:54;;;;;;;35.83;33.63;;;;;;;;;;5030929;28;20033;-60
2023/12/19 11:48:39;;;;;;;33.83;32.00;;;;;;;;;;5032015;28;20044;-60
2023/12/19 11:51:09;;;;;;;32.65;30.95;;;;;;;;;;5034219;28;20033;-60
2023/12/19 11:53:38;;;;;;;33.33;31.52;;;;;;;;;;5035564;28;20044;-61
2023/12/19 11:56:12;;;;;;;33.42;31.67;;;;;;;;;;5030924;28;20022;-59
2023/12/19 11:58:45;;;;;;;33.80;31.95;;;;;;;;;;5033356;28;20033;-59
2023/12/19 12:01:10;;;;;;;32.17;30.38;;;;;;;;;;5030802;28;20051;-59
2023/12/19 12:03:38;;;;;;;30.25;28.60;;;;;;;;;;5034455;28;20164;-59
2023/12/19 12:06:04;;;;;;;30.38;28.67;;;;;;;;;;5036226;28;20043;-59
2023/12/19 12:08:30;;;;;;;30.25;28.65;;;;;;;;;;5032396;28;20037;-59
2023/12/19 12:11:00;;;;;;;32.67;30.85;;;;;;;;;;5031424;28;20041;-60
2023/12/19 12:13:27;;;;;;;31.25;29.45;;;;;;;;;;5032296;28;20045;-59
2023/12/19 12:15:57;;;;;;;28.05;26.52;;;;;;;;;;5030132;28;20678;-59
2023/12/19 12:18:23;;;;;;;28.45;26.95;;;;;;;;;;5029455;28;20048;-60
2023/12/19 12:20:48;;;;;;;27.75;26.25;;;;;;;;;;5041071;28;20069;-60
2023/12/19 12:23:18;;;;;;;31.50;29.73;;;;;;;;;;5032689;28;20069;-61
2023/12/19 12:25:43;;;;;;;29.77;28.17;;;;;;;;;;5032596;28;20052;-60
2023/12/19 12:28:10;;;;;;;28.58;27.02;;;;;;;;;;5032640;28;20038;-60
2023/12/19 12:30:39;;;;;;;29.73;28.02;;;;;;;;;;5026298;28;20033;-58
2023/12/19 12:33:05;;;;;;;32.05;30.30;;;;;;;;;;5029084;28;20056;-59
2023/12/19 12:35:35;;;;;;;31.27;29.65;;;;;;;;;;5030001;28;20102;-59
2023/12/19 12:38:17;;;;;;;30.58;28.90;;;;;;;;;;5030732;28;20057;-59
2023/12/19 12:41:00;;;;;;;31.80;30.10;;;;;;;;;;5028417;28;20094;-59
2023/12/19 12:43:33;;;;;;;30.92;29.30;;;;;;;;;;5025819;28;20461;-59
2023/12/19 12:46:13;;;;;;;30.73;29.02;;;;;;;;;;5032838;28;20040;-59
2023/12/19 12:49:00;;;;;;;29.42;27.83;;;;;;;;;;5029043;28;20121;-59
2023/12/19 12:51:26;;;;;;;32.22;30.23;;;;;;;;;;5025167;28;20045;-59
2023/12/19 12:53:57;;;;;;;31.48;29.77;;;;;;;;;;5025236;28;20451;-59
2023/12/19 12:56:31;;;;;;;29.17;27.58;;;;;;;;;;5030443;28;20402;-59
2023/12/19 12:59:08;;;;;;;31.65;29.95;;;;;;;;;;5026364;28;20060;-60
2023/12/19 13:01:34;;;;;;;31.27;29.58;;;;;;;;;;5029685;28;20036;-59
2023/12/19 13:04:00;;;;;;;29.52;27.83;;;;;;;;;;5026039;28;20112;-60
2023/12/19 13:06:25;;;;;;;29.08;27.48;;;;;;;;;;5026210;28;20170;-57
2023/12/19 13:08:54;;;;;;;30.73;29.02;;;;;;;;;;5027351;28;20090;-57
2023/12/19 13:11:23;;;;;;;31.58;29.88;;;;;;;;;;5027769;28;20041;-58
2023/12/19 13:13:49;;;;;;;32.78;30.65;;;;;;;;;;5027153;28;20107;-57
2023/12/19 13:16:16;;;;;;;29.70;28.05;;;;;;;;;;5025802;28;20124;-58
2023/12/19 13:18:44;;;;;;;30.02;28.33;;;;;;;;;;5027788;28;20026;-57
2023/12/19 13:21:10;;;;;;;29.77;28.13;;;;;;;;;;5024600;28;20041;-59
2023/12/19 13:23:35;;;;;;;28.77;27.27;;;;;;;;;;5025983;28;20033;-58
2023/12/19 13:26:00;;;;;;;31.13;29.42;;;;;;;;;;5026729;28;20040;-58
2023/12/19 13:28:26;;;;;;;32.20;30.25;;;;;;;;;;5021251;28;20034;-57
2023/12/19 13:30:51;;;;;;;29.35;27.75;;;;;;;;;;5024499;28;20087;-59
2023/12/19 13:33:17;;;;;;;30.00;28.30;;;;;;;;;;5028456;28;20049;-59
2023/12/19 13:35:43;;;;;;;31.90;30.08;;;;;;;;;;5026000;28;20025;-58
2023/12/19 13:38:08;;;;;;;29.40;27.77;;;;;;;;;;5028087;28;20118;-58
2023/12/19 13:40:34;;;;;;;30.13;28.52;;;;;;;;;;5029139;28;20106;-58
2023/12/19 13:43:02;;;;;;;28.90;27.20;;;;;;;;;;5022389;28;20064;-58
2023/12/19 13:45:30;;;;;;;32.13;30.27;;;;;;;;;;5029716;28;20044;-58
2023/12/19 13:47:58;;;;;;;31.15;29.35;;;;;;;;;;5030412;28;20033;-58
2023/12/19 13:50:24;;;;;;;29.98;28.38;;;;;;;;;;5027728;28;20049;-58
2023/12/19 13:52:49;;;;;;;29.25;27.60;;;;;;;;;;5030732;28;20084;-58
2023/12/19 13:55:15;;;;;;;49.10;44.60;;;;;;;;;;5031000;28;20061;-59
2023/12/19 13:57:40;;;;;;;35.47;33.00;;;;;;;;;;5026495;28;20096;-58
2023/12/19 14:00:07;;;;;;;34.72;32.47;;;;;;;;;;5026987;28;20045;-58
2023/12/19 14:02:33;;;;;;;30.42;28.63;;;;;;;;;;5026907;28;20038;-58
2023/12/19 14:04:59;;;;;;;26.48;24.98;;;;;;;;;;5025663;28;20562;-58
2023/12/19 14:07:24;;;;;;;28.73;27.13;;;;;;;;;;5029774;28;20056;-59
2023/12/19 14:09:50;;;;;;;28.90;27.27;;;;;;;;;;5031498;28;20459;-58
2023/12/19 14:12:15;;;;;;;33.55;31.10;;;;;;;;;;5029397;28;20029;-58
2023/12/19 14:14:41;;;;;;;27.95;26.45;;;;;;;;;;5027255;28;20029;-58
2023/12/19 14:17:06;;;;;;;28.33;26.73;;;;;;;;;;5029603;28;20083;-57